sensor_id;sensor_type;location;lat;lon;timestamp;P1;durP1;ratioP1;P2;durP2;ratioP2
53881;SDS011;39794;55.782;37.452;2023-11-19T00:02:09;24.35;;;9.95;;
53881;SDS011;39794;55.782;37.452;2023-11-19T00:04:38;24.48;;;10.65;;
53881;SDS011;39794;55.782;37.452;2023-11-19T00:07:07;21.08;;;10.65;;
53881;SDS011;39794;55.782;37.452;2023-11-19T00:09:37;27.75;;;10.40;;
53881;SDS011;39794;55.782;37.452;2023-11-19T00:12:06;23.85;;;9.60;;
53881;SDS011;39794;55.782;37.452;2023-11-19T00:14:35;24.00;;;10.55;;
53881;SDS011;39794;55.782;37.452;2023-11-19T00:17:05;32.95;;;10.93;;
53881;SDS011;39794;55.782;37.452;2023-11-19T00:19:34;23.65;;;9.98;;
53881;SDS011;39794;55.782;37.452;2023-11-19T00:22:02;19.52;;;9.95;;
53881;SDS011;39794;55.782;37.452;2023-11-19T00:24:31;31.30;;;10.57;;
53881;SDS011;39794;55.782;37.452;2023-11-19T00:27:00;23.75;;;10.38;;
53881;SDS011;39794;55.782;37.452;2023-11-19T00:29:29;30.00;;;10.02;;
53881;SDS011;39794;55.782;37.452;2023-11-19T00:31:57;25.13;;;10.73;;
53881;SDS011;39794;55.782;37.452;2023-11-19T00:34:27;22.80;;;10.02;;
53881;SDS011;39794;55.782;37.452;2023-11-19T00:36:56;24.00;;;11.50;;
53881;SDS011;39794;55.782;37.452;2023-11-19T00:39:25;20.85;;;9.90;;
53881;SDS011;39794;55.782;37.452;2023-11-19T00:41:54;23.77;;;10.50;;
53881;SDS011;39794;55.782;37.452;2023-11-19T00:44:22;21.92;;;11.02;;
53881;SDS011;39794;55.782;37.452;2023-11-19T00:46:51;27.90;;;10.30;;
53881;SDS011;39794;55.782;37.452;2023-11-19T00:49:20;20.48;;;11.80;;
53881;SDS011;39794;55.782;37.452;2023-11-19T00:51:50;21.25;;;9.73;;
53881;SDS011;39794;55.782;37.452;2023-11-19T00:54:19;22.02;;;8.98;;
53881;SDS011;39794;55.782;37.452;2023-11-19T00:56:48;17.58;;;9.35;;
53881;SDS011;39794;55.782;37.452;2023-11-19T00:59:19;23.25;;;10.13;;
53881;SDS011;39794;55.782;37.452;2023-11-19T01:01:48;20.92;;;9.68;;
53881;SDS011;39794;55.782;37.452;2023-11-19T01:04:18;24.55;;;10.07;;
53881;SDS011;39794;55.782;37.452;2023-11-19T01:06:47;23.77;;;11.00;;
53881;SDS011;39794;55.782;37.452;2023-11-19T01:09:17;20.90;;;10.02;;
53881;SDS011;39794;55.782;37.452;2023-11-19T01:11:46;19.92;;;9.32;;
53881;SDS011;39794;55.782;37.452;2023-11-19T01:14:15;21.98;;;9.50;;
53881;SDS011;39794;55.782;37.452;2023-11-19T01:16:44;17.83;;;8.73;;
53881;SDS011;39794;55.782;37.452;2023-11-19T01:19:13;23.58;;;9.85;;
53881;SDS011;39794;55.782;37.452;2023-11-19T01:21:44;17.25;;;8.68;;
53881;SDS011;39794;55.782;37.452;2023-11-19T01:24:13;20.27;;;9.70;;
53881;SDS011;39794;55.782;37.452;2023-11-19T01:26:43;18.35;;;9.07;;
53881;SDS011;39794;55.782;37.452;2023-11-19T01:29:13;21.58;;;9.48;;
53881;SDS011;39794;55.782;37.452;2023-11-19T01:31:43;19.98;;;9.23;;
53881;SDS011;39794;55.782;37.452;2023-11-19T01:34:14;20.80;;;9.32;;
53881;SDS011;39794;55.782;37.452;2023-11-19T01:36:43;19.13;;;9.75;;
53881;SDS011;39794;55.782;37.452;2023-11-19T01:39:13;27.98;;;10.13;;
53881;SDS011;39794;55.782;37.452;2023-11-19T01:41:44;19.25;;;9.25;;
53881;SDS011;39794;55.782;37.452;2023-11-19T01:44:13;20.23;;;9.50;;
53881;SDS011;39794;55.782;37.452;2023-11-19T01:46:44;19.17;;;9.38;;
53881;SDS011;39794;55.782;37.452;2023-11-19T01:49:16;25.42;;;9.65;;
53881;SDS011;39794;55.782;37.452;2023-11-19T01:51:46;20.17;;;9.00;;
53881;SDS011;39794;55.782;37.452;2023-11-19T01:54:16;20.75;;;8.40;;
53881;SDS011;39794;55.782;37.452;2023-11-19T01:56:46;18.70;;;9.13;;
53881;SDS011;39794;55.782;37.452;2023-11-19T01:59:15;16.70;;;8.98;;
53881;SDS011;39794;55.782;37.452;2023-11-19T02:01:45;17.77;;;9.30;;
53881;SDS011;39794;55.782;37.452;2023-11-19T02:04:14;18.17;;;9.35;;
53881;SDS011;39794;55.782;37.452;2023-11-19T02:06:42;22.10;;;9.68;;
53881;SDS011;39794;55.782;37.452;2023-11-19T02:09:11;20.30;;;9.65;;
53881;SDS011;39794;55.782;37.452;2023-11-19T02:11:40;21.25;;;10.10;;
53881;SDS011;39794;55.782;37.452;2023-11-19T02:14:11;21.52;;;10.18;;
53881;SDS011;39794;55.782;37.452;2023-11-19T02:16:40;20.88;;;9.05;;
53881;SDS011;39794;55.782;37.452;2023-11-19T02:19:09;19.73;;;9.00;;
53881;SDS011;39794;55.782;37.452;2023-11-19T02:21:58;20.65;;;9.98;;
53881;SDS011;39794;55.782;37.452;2023-11-19T02:24:28;24.58;;;10.65;;
53881;SDS011;39794;55.782;37.452;2023-11-19T02:26:59;24.88;;;11.00;;
53881;SDS011;39794;55.782;37.452;2023-11-19T02:29:33;22.27;;;10.43;;
53881;SDS011;39794;55.782;37.452;2023-11-19T02:32:02;23.70;;;10.60;;
53881;SDS011;39794;55.782;37.452;2023-11-19T02:34:31;26.02;;;10.50;;
53881;SDS011;39794;55.782;37.452;2023-11-19T02:37:00;24.00;;;9.57;;
53881;SDS011;39794;55.782;37.452;2023-11-19T02:39:29;18.60;;;9.35;;
53881;SDS011;39794;55.782;37.452;2023-11-19T02:41:58;19.02;;;9.93;;
53881;SDS011;39794;55.782;37.452;2023-11-19T02:44:27;22.63;;;10.30;;
53881;SDS011;39794;55.782;37.452;2023-11-19T02:46:59;21.52;;;9.98;;
53881;SDS011;39794;55.782;37.452;2023-11-19T02:49:28;25.90;;;10.32;;
53881;SDS011;39794;55.782;37.452;2023-11-19T02:51:57;20.17;;;9.57;;
53881;SDS011;39794;55.782;37.452;2023-11-19T02:54:26;21.92;;;9.38;;
53881;SDS011;39794;55.782;37.452;2023-11-19T02:56:55;22.70;;;11.00;;
53881;SDS011;39794;55.782;37.452;2023-11-19T02:59:26;21.65;;;9.68;;
53881;SDS011;39794;55.782;37.452;2023-11-19T03:02:07;21.48;;;10.27;;
53881;SDS011;39794;55.782;37.452;2023-11-19T03:04:38;17.85;;;9.07;;
53881;SDS011;39794;55.782;37.452;2023-11-19T03:07:07;18.95;;;9.55;;
53881;SDS011;39794;55.782;37.452;2023-11-19T03:09:36;19.17;;;10.32;;
53881;SDS011;39794;55.782;37.452;2023-11-19T03:12:07;23.30;;;10.35;;
53881;SDS011;39794;55.782;37.452;2023-11-19T03:14:36;22.30;;;10.77;;
53881;SDS011;39794;55.782;37.452;2023-11-19T03:17:06;18.60;;;9.20;;
53881;SDS011;39794;55.782;37.452;2023-11-19T03:19:36;20.30;;;10.80;;
53881;SDS011;39794;55.782;37.452;2023-11-19T03:22:05;19.92;;;10.32;;
53881;SDS011;39794;55.782;37.452;2023-11-19T03:24:34;19.77;;;10.18;;
53881;SDS011;39794;55.782;37.452;2023-11-19T03:27:03;24.10;;;11.13;;
53881;SDS011;39794;55.782;37.452;2023-11-19T03:29:32;27.88;;;11.32;;
53881;SDS011;39794;55.782;37.452;2023-11-19T03:32:00;24.67;;;11.50;;
53881;SDS011;39794;55.782;37.452;2023-11-19T03:34:30;26.10;;;12.40;;
53881;SDS011;39794;55.782;37.452;2023-11-19T03:36:59;25.23;;;11.95;;
53881;SDS011;39794;55.782;37.452;2023-11-19T03:39:28;24.20;;;10.98;;
53881;SDS011;39794;55.782;37.452;2023-11-19T03:41:57;23.30;;;10.77;;
53881;SDS011;39794;55.782;37.452;2023-11-19T03:44:27;22.80;;;10.48;;
53881;SDS011;39794;55.782;37.452;2023-11-19T03:46:55;22.35;;;11.25;;
53881;SDS011;39794;55.782;37.452;2023-11-19T03:49:24;24.63;;;11.65;;
53881;SDS011;39794;55.782;37.452;2023-11-19T03:51:55;21.17;;;10.88;;
53881;SDS011;39794;55.782;37.452;2023-11-19T03:54:23;25.77;;;11.93;;
53881;SDS011;39794;55.782;37.452;2023-11-19T03:56:52;26.63;;;11.18;;
53881;SDS011;39794;55.782;37.452;2023-11-19T03:59:20;22.50;;;11.32;;
53881;SDS011;39794;55.782;37.452;2023-11-19T04:01:49;18.77;;;10.32;;
53881;SDS011;39794;55.782;37.452;2023-11-19T04:04:18;24.20;;;11.82;;
53881;SDS011;39794;55.782;37.452;2023-11-19T04:06:47;23.92;;;11.18;;
53881;SDS011;39794;55.782;37.452;2023-11-19T04:09:17;42.83;;;11.60;;
53881;SDS011;39794;55.782;37.452;2023-11-19T04:11:46;26.55;;;11.10;;
53881;SDS011;39794;55.782;37.452;2023-11-19T04:14:15;19.55;;;10.40;;
53881;SDS011;39794;55.782;37.452;2023-11-19T04:16:45;22.95;;;11.15;;
53881;SDS011;39794;55.782;37.452;2023-11-19T04:19:14;20.80;;;11.13;;
53881;SDS011;39794;55.782;37.452;2023-11-19T04:21:43;25.10;;;11.43;;
53881;SDS011;39794;55.782;37.452;2023-11-19T04:24:12;30.17;;;11.02;;
53881;SDS011;39794;55.782;37.452;2023-11-19T04:26:42;31.35;;;12.15;;
53881;SDS011;39794;55.782;37.452;2023-11-19T04:29:12;22.10;;;10.68;;
53881;SDS011;39794;55.782;37.452;2023-11-19T04:31:41;23.00;;;10.93;;
53881;SDS011;39794;55.782;37.452;2023-11-19T04:34:11;19.42;;;10.07;;
53881;SDS011;39794;55.782;37.452;2023-11-19T04:36:40;23.63;;;10.77;;
53881;SDS011;39794;55.782;37.452;2023-11-19T04:39:10;22.77;;;11.07;;
53881;SDS011;39794;55.782;37.452;2023-11-19T04:41:46;23.63;;;10.40;;
53881;SDS011;39794;55.782;37.452;2023-11-19T04:44:15;24.13;;;9.90;;
53881;SDS011;39794;55.782;37.452;2023-11-19T04:46:44;21.73;;;11.00;;
53881;SDS011;39794;55.782;37.452;2023-11-19T04:49:13;25.67;;;10.43;;
53881;SDS011;39794;55.782;37.452;2023-11-19T04:51:44;22.77;;;9.80;;
53881;SDS011;39794;55.782;37.452;2023-11-19T04:54:14;22.40;;;9.88;;
53881;SDS011;39794;55.782;37.452;2023-11-19T04:56:44;21.90;;;9.70;;
53881;SDS011;39794;55.782;37.452;2023-11-19T04:59:15;23.33;;;10.68;;
53881;SDS011;39794;55.782;37.452;2023-11-19T05:01:46;28.17;;;10.27;;
53881;SDS011;39794;55.782;37.452;2023-11-19T05:04:15;20.25;;;10.50;;
53881;SDS011;39794;55.782;37.452;2023-11-19T05:06:46;28.35;;;10.25;;
53881;SDS011;39794;55.782;37.452;2023-11-19T05:09:14;19.52;;;9.70;;
53881;SDS011;39794;55.782;37.452;2023-11-19T05:11:43;20.77;;;10.20;;
53881;SDS011;39794;55.782;37.452;2023-11-19T05:14:16;25.05;;;9.15;;
53881;SDS011;39794;55.782;37.452;2023-11-19T05:16:45;20.00;;;9.23;;
53881;SDS011;39794;55.782;37.452;2023-11-19T05:19:14;25.95;;;10.88;;
53881;SDS011;39794;55.782;37.452;2023-11-19T05:21:42;23.27;;;10.32;;
53881;SDS011;39794;55.782;37.452;2023-11-19T05:24:11;22.90;;;10.85;;
53881;SDS011;39794;55.782;37.452;2023-11-19T05:26:40;19.40;;;9.55;;
53881;SDS011;39794;55.782;37.452;2023-11-19T05:29:09;16.77;;;8.95;;
53881;SDS011;39794;55.782;37.452;2023-11-19T05:31:38;25.35;;;10.05;;
53881;SDS011;39794;55.782;37.452;2023-11-19T05:34:10;19.20;;;9.90;;
53881;SDS011;39794;55.782;37.452;2023-11-19T05:36:42;22.73;;;10.07;;
53881;SDS011;39794;55.782;37.452;2023-11-19T05:39:10;18.92;;;9.95;;
53881;SDS011;39794;55.782;37.452;2023-11-19T05:41:39;21.17;;;9.45;;
53881;SDS011;39794;55.782;37.452;2023-11-19T05:44:07;20.23;;;10.00;;
53881;SDS011;39794;55.782;37.452;2023-11-19T05:46:36;21.98;;;10.38;;
53881;SDS011;39794;55.782;37.452;2023-11-19T05:49:11;22.92;;;10.07;;
53881;SDS011;39794;55.782;37.452;2023-11-19T05:51:40;22.85;;;9.52;;
53881;SDS011;39794;55.782;37.452;2023-11-19T05:54:09;21.40;;;11.13;;
53881;SDS011;39794;55.782;37.452;2023-11-19T05:56:38;18.90;;;9.45;;
53881;SDS011;39794;55.782;37.452;2023-11-19T05:59:07;21.67;;;10.35;;
53881;SDS011;39794;55.782;37.452;2023-11-19T06:01:42;20.77;;;9.68;;
53881;SDS011;39794;55.782;37.452;2023-11-19T06:04:12;21.58;;;10.30;;
53881;SDS011;39794;55.782;37.452;2023-11-19T06:06:41;32.53;;;11.40;;
53881;SDS011;39794;55.782;37.452;2023-11-19T06:09:10;23.65;;;10.65;;
53881;SDS011;39794;55.782;37.452;2023-11-19T06:11:40;22.98;;;9.82;;
53881;SDS011;39794;55.782;37.452;2023-11-19T06:14:09;23.98;;;9.65;;
53881;SDS011;39794;55.782;37.452;2023-11-19T06:16:38;21.52;;;9.77;;
53881;SDS011;39794;55.782;37.452;2023-11-19T06:19:07;23.95;;;9.52;;
53881;SDS011;39794;55.782;37.452;2023-11-19T06:21:38;33.78;;;14.02;;
53881;SDS011;39794;55.782;37.452;2023-11-19T06:24:07;28.55;;;12.93;;
53881;SDS011;39794;55.782;37.452;2023-11-19T06:26:36;22.00;;;11.20;;
53881;SDS011;39794;55.782;37.452;2023-11-19T06:29:05;20.27;;;10.32;;
53881;SDS011;39794;55.782;37.452;2023-11-19T06:31:34;21.48;;;10.63;;
53881;SDS011;39794;55.782;37.452;2023-11-19T06:34:03;28.33;;;11.10;;
53881;SDS011;39794;55.782;37.452;2023-11-19T06:36:32;22.20;;;10.88;;
53881;SDS011;39794;55.782;37.452;2023-11-19T06:39:02;35.58;;;11.13;;
53881;SDS011;39794;55.782;37.452;2023-11-19T06:41:32;20.35;;;10.80;;
53881;SDS011;39794;55.782;37.452;2023-11-19T06:44:01;22.35;;;10.32;;
53881;SDS011;39794;55.782;37.452;2023-11-19T06:46:29;21.92;;;9.73;;
53881;SDS011;39794;55.782;37.452;2023-11-19T06:48:58;31.60;;;9.63;;
53881;SDS011;39794;55.782;37.452;2023-11-19T06:51:27;23.02;;;9.93;;
53881;SDS011;39794;55.782;37.452;2023-11-19T06:53:56;22.23;;;9.55;;
53881;SDS011;39794;55.782;37.452;2023-11-19T06:56:28;21.70;;;9.00;;
53881;SDS011;39794;55.782;37.452;2023-11-19T06:58:56;19.00;;;9.52;;
53881;SDS011;39794;55.782;37.452;2023-11-19T07:01:25;32.97;;;8.77;;
53881;SDS011;39794;55.782;37.452;2023-11-19T07:03:54;22.13;;;8.63;;
53881;SDS011;39794;55.782;37.452;2023-11-19T07:06:25;16.50;;;8.18;;
53881;SDS011;39794;55.782;37.452;2023-11-19T07:08:56;20.40;;;8.05;;
53881;SDS011;39794;55.782;37.452;2023-11-19T07:11:25;21.77;;;8.45;;
53881;SDS011;39794;55.782;37.452;2023-11-19T07:13:55;22.60;;;8.68;;
53881;SDS011;39794;55.782;37.452;2023-11-19T07:16:23;20.08;;;8.00;;
53881;SDS011;39794;55.782;37.452;2023-11-19T07:18:52;22.30;;;8.20;;
53881;SDS011;39794;55.782;37.452;2023-11-19T07:21:21;23.48;;;9.18;;
53881;SDS011;39794;55.782;37.452;2023-11-19T07:23:49;27.27;;;9.63;;
53881;SDS011;39794;55.782;37.452;2023-11-19T07:26:19;18.63;;;8.90;;
53881;SDS011;39794;55.782;37.452;2023-11-19T07:28:49;17.73;;;8.15;;
53881;SDS011;39794;55.782;37.452;2023-11-19T07:31:19;18.40;;;7.80;;
53881;SDS011;39794;55.782;37.452;2023-11-19T07:33:47;18.92;;;8.48;;
53881;SDS011;39794;55.782;37.452;2023-11-19T07:36:16;15.85;;;8.10;;
53881;SDS011;39794;55.782;37.452;2023-11-19T07:38:45;16.20;;;7.80;;
53881;SDS011;39794;55.782;37.452;2023-11-19T07:41:14;14.93;;;7.53;;
53881;SDS011;39794;55.782;37.452;2023-11-19T07:43:44;16.77;;;7.18;;
53881;SDS011;39794;55.782;37.452;2023-11-19T07:46:13;14.77;;;7.40;;
53881;SDS011;39794;55.782;37.452;2023-11-19T07:48:43;17.02;;;6.93;;
53881;SDS011;39794;55.782;37.452;2023-11-19T07:51:14;15.68;;;7.60;;
53881;SDS011;39794;55.782;37.452;2023-11-19T07:53:43;15.30;;;6.07;;
53881;SDS011;39794;55.782;37.452;2023-11-19T07:56:11;12.75;;;6.78;;
53881;SDS011;39794;55.782;37.452;2023-11-19T07:58:40;21.20;;;7.05;;
53881;SDS011;39794;55.782;37.452;2023-11-19T08:01:09;10.60;;;5.85;;
53881;SDS011;39794;55.782;37.452;2023-11-19T08:03:37;13.07;;;5.65;;
53881;SDS011;39794;55.782;37.452;2023-11-19T08:06:08;17.25;;;8.07;;
53881;SDS011;39794;55.782;37.452;2023-11-19T08:08:37;12.70;;;6.05;;
53881;SDS011;39794;55.782;37.452;2023-11-19T08:11:06;11.63;;;5.55;;
53881;SDS011;39794;55.782;37.452;2023-11-19T08:13:34;11.88;;;5.15;;
53881;SDS011;39794;55.782;37.452;2023-11-19T08:16:03;12.07;;;5.70;;
53881;SDS011;39794;55.782;37.452;2023-11-19T08:18:32;17.80;;;5.60;;
53881;SDS011;39794;55.782;37.452;2023-11-19T08:21:01;12.90;;;5.70;;
53881;SDS011;39794;55.782;37.452;2023-11-19T08:23:33;14.00;;;6.18;;
53881;SDS011;39794;55.782;37.452;2023-11-19T08:26:04;12.90;;;5.95;;
53881;SDS011;39794;55.782;37.452;2023-11-19T08:28:33;33.42;;;8.23;;
53881;SDS011;39794;55.782;37.452;2023-11-19T08:31:02;13.60;;;7.10;;
53881;SDS011;39794;55.782;37.452;2023-11-19T08:33:31;12.43;;;6.80;;
53881;SDS011;39794;55.782;37.452;2023-11-19T08:36:00;16.40;;;8.70;;
53881;SDS011;39794;55.782;37.452;2023-11-19T08:38:30;25.63;;;8.38;;
53881;SDS011;39794;55.782;37.452;2023-11-19T08:41:00;20.85;;;8.23;;
53881;SDS011;39794;55.782;37.452;2023-11-19T08:43:29;14.52;;;7.75;;
53881;SDS011;39794;55.782;37.452;2023-11-19T08:45:58;16.05;;;8.57;;
53881;SDS011;39794;55.782;37.452;2023-11-19T08:48:27;15.98;;;8.10;;
53881;SDS011;39794;55.782;37.452;2023-11-19T08:50:56;30.55;;;11.27;;
53881;SDS011;39794;55.782;37.452;2023-11-19T08:53:24;22.48;;;8.65;;
53881;SDS011;39794;55.782;37.452;2023-11-19T08:55:54;20.02;;;8.32;;
53881;SDS011;39794;55.782;37.452;2023-11-19T08:58:23;16.80;;;6.93;;
53881;SDS011;39794;55.782;37.452;2023-11-19T09:00:52;29.20;;;9.20;;
53881;SDS011;39794;55.782;37.452;2023-11-19T09:03:20;17.55;;;9.57;;
53881;SDS011;39794;55.782;37.452;2023-11-19T09:05:49;14.70;;;7.57;;
53881;SDS011;39794;55.782;37.452;2023-11-19T09:08:18;19.38;;;8.05;;
53881;SDS011;39794;55.782;37.452;2023-11-19T09:10:47;15.50;;;8.25;;
53881;SDS011;39794;55.782;37.452;2023-11-19T09:13:17;12.40;;;7.28;;
53881;SDS011;39794;55.782;37.452;2023-11-19T09:15:46;17.25;;;7.78;;
53881;SDS011;39794;55.782;37.452;2023-11-19T09:18:15;17.83;;;7.50;;
53881;SDS011;39794;55.782;37.452;2023-11-19T09:20:43;19.48;;;9.25;;
53881;SDS011;39794;55.782;37.452;2023-11-19T09:23:12;18.75;;;9.88;;
53881;SDS011;39794;55.782;37.452;2023-11-19T09:25:41;21.92;;;9.07;;
53881;SDS011;39794;55.782;37.452;2023-11-19T09:28:11;19.50;;;8.55;;
53881;SDS011;39794;55.782;37.452;2023-11-19T09:30:42;17.75;;;9.05;;
53881;SDS011;39794;55.782;37.452;2023-11-19T09:33:11;25.00;;;10.10;;
53881;SDS011;39794;55.782;37.452;2023-11-19T09:35:40;20.33;;;9.00;;
53881;SDS011;39794;55.782;37.452;2023-11-19T09:38:08;25.05;;;9.90;;
53881;SDS011;39794;55.782;37.452;2023-11-19T09:40:39;27.30;;;9.18;;
53881;SDS011;39794;55.782;37.452;2023-11-19T09:43:08;16.55;;;7.15;;
53881;SDS011;39794;55.782;37.452;2023-11-19T09:45:39;18.80;;;7.60;;
53881;SDS011;39794;55.782;37.452;2023-11-19T09:48:17;21.02;;;8.90;;
53881;SDS011;39794;55.782;37.452;2023-11-19T09:50:46;18.70;;;8.60;;
53881;SDS011;39794;55.782;37.452;2023-11-19T09:53:16;20.45;;;9.30;;
53881;SDS011;39794;55.782;37.452;2023-11-19T09:55:44;15.30;;;8.90;;
53881;SDS011;39794;55.782;37.452;2023-11-19T09:58:13;22.08;;;9.45;;
53881;SDS011;39794;55.782;37.452;2023-11-19T10:00:42;50.92;;;11.73;;
53881;SDS011;39794;55.782;37.452;2023-11-19T10:03:22;18.52;;;10.13;;
53881;SDS011;39794;55.782;37.452;2023-11-19T10:05:51;21.73;;;9.57;;
53881;SDS011;39794;55.782;37.452;2023-11-19T10:08:20;27.00;;;9.80;;
53881;SDS011;39794;55.782;37.452;2023-11-19T10:10:49;22.05;;;9.43;;
53881;SDS011;39794;55.782;37.452;2023-11-19T10:13:18;16.17;;;9.82;;
53881;SDS011;39794;55.782;37.452;2023-11-19T10:15:47;26.35;;;10.88;;
53881;SDS011;39794;55.782;37.452;2023-11-19T10:18:17;20.88;;;10.45;;
53881;SDS011;39794;55.782;37.452;2023-11-19T10:20:47;17.60;;;9.63;;
53881;SDS011;39794;55.782;37.452;2023-11-19T10:23:16;20.38;;;9.00;;
53881;SDS011;39794;55.782;37.452;2023-11-19T10:25:45;30.00;;;11.60;;
53881;SDS011;39794;55.782;37.452;2023-11-19T10:28:14;20.17;;;10.52;;
53881;SDS011;39794;55.782;37.452;2023-11-19T10:30:44;23.13;;;10.45;;
53881;SDS011;39794;55.782;37.452;2023-11-19T10:33:13;19.48;;;9.85;;
53881;SDS011;39794;55.782;37.452;2023-11-19T10:35:52;36.95;;;11.88;;
53881;SDS011;39794;55.782;37.452;2023-11-19T10:38:25;21.75;;;10.77;;
53881;SDS011;39794;55.782;37.452;2023-11-19T10:40:54;18.45;;;10.38;;
53881;SDS011;39794;55.782;37.452;2023-11-19T10:43:23;18.48;;;10.25;;
53881;SDS011;39794;55.782;37.452;2023-11-19T10:45:52;20.80;;;9.10;;
53881;SDS011;39794;55.782;37.452;2023-11-19T10:48:21;34.00;;;9.68;;
53881;SDS011;39794;55.782;37.452;2023-11-19T10:50:54;20.00;;;10.27;;
53881;SDS011;39794;55.782;37.452;2023-11-19T10:53:23;21.40;;;10.35;;
53881;SDS011;39794;55.782;37.452;2023-11-19T10:55:53;75.22;;;12.55;;
53881;SDS011;39794;55.782;37.452;2023-11-19T10:58:25;34.28;;;11.30;;
53881;SDS011;39794;55.782;37.452;2023-11-19T11:00:55;21.60;;;9.45;;
53881;SDS011;39794;55.782;37.452;2023-11-19T11:03:25;18.90;;;9.95;;
53881;SDS011;39794;55.782;37.452;2023-11-19T11:05:59;25.63;;;10.13;;
53881;SDS011;39794;55.782;37.452;2023-11-19T11:08:30;19.92;;;10.20;;
53881;SDS011;39794;55.782;37.452;2023-11-19T11:10:59;22.08;;;10.77;;
53881;SDS011;39794;55.782;37.452;2023-11-19T11:13:28;20.83;;;11.02;;
53881;SDS011;39794;55.782;37.452;2023-11-19T11:15:57;23.77;;;10.80;;
53881;SDS011;39794;55.782;37.452;2023-11-19T11:18:26;21.40;;;10.32;;
53881;SDS011;39794;55.782;37.452;2023-11-19T11:20:56;16.05;;;9.55;;
53881;SDS011;39794;55.782;37.452;2023-11-19T11:30:01;23.52;;;9.65;;
53881;SDS011;39794;55.782;37.452;2023-11-19T11:32:37;26.20;;;11.48;;
53881;SDS011;39794;55.782;37.452;2023-11-19T11:35:15;21.98;;;10.63;;
53881;SDS011;39794;55.782;37.452;2023-11-19T11:37:54;21.63;;;10.82;;
53881;SDS011;39794;55.782;37.452;2023-11-19T11:40:28;19.95;;;10.07;;
53881;SDS011;39794;55.782;37.452;2023-11-19T11:42:58;18.60;;;9.90;;
53881;SDS011;39794;55.782;37.452;2023-11-19T11:45:36;21.52;;;9.60;;
53881;SDS011;39794;55.782;37.452;2023-11-19T11:48:09;22.05;;;10.35;;
53881;SDS011;39794;55.782;37.452;2023-11-19T11:50:52;21.83;;;11.15;;
53881;SDS011;39794;55.782;37.452;2023-11-19T11:53:25;19.83;;;10.95;;
53881;SDS011;39794;55.782;37.452;2023-11-19T11:55:59;27.10;;;10.75;;
53881;SDS011;39794;55.782;37.452;2023-11-19T11:58:30;24.73;;;9.60;;
53881;SDS011;39794;55.782;37.452;2023-11-19T12:01:00;22.27;;;10.55;;
53881;SDS011;39794;55.782;37.452;2023-11-19T12:03:30;29.50;;;10.13;;
53881;SDS011;39794;55.782;37.452;2023-11-19T12:06:00;24.80;;;10.90;;
53881;SDS011;39794;55.782;37.452;2023-11-19T12:08:29;23.90;;;9.57;;
53881;SDS011;39794;55.782;37.452;2023-11-19T12:11:00;23.45;;;11.27;;
53881;SDS011;39794;55.782;37.452;2023-11-19T12:16:26;18.88;;;9.68;;
53881;SDS011;39794;55.782;37.452;2023-11-19T12:18:56;27.55;;;10.13;;
53881;SDS011;39794;55.782;37.452;2023-11-19T12:21:32;20.77;;;9.45;;
53881;SDS011;39794;55.782;37.452;2023-11-19T12:24:04;20.20;;;10.88;;
53881;SDS011;39794;55.782;37.452;2023-11-19T12:26:37;21.83;;;10.07;;
53881;SDS011;39794;55.782;37.452;2023-11-19T12:29:06;22.45;;;9.18;;
53881;SDS011;39794;55.782;37.452;2023-11-19T12:31:36;15.23;;;8.90;;
53881;SDS011;39794;55.782;37.452;2023-11-19T12:34:08;16.90;;;9.98;;
53881;SDS011;39794;55.782;37.452;2023-11-19T12:36:40;26.77;;;9.30;;
53881;SDS011;39794;55.782;37.452;2023-11-19T12:39:10;17.58;;;8.38;;
53881;SDS011;39794;55.782;37.452;2023-11-19T12:41:53;15.95;;;7.07;;
53881;SDS011;39794;55.782;37.452;2023-11-19T12:44:25;15.55;;;7.90;;
53881;SDS011;39794;55.782;37.452;2023-11-19T12:47:03;13.50;;;7.75;;
53881;SDS011;39794;55.782;37.452;2023-11-19T12:49:34;16.83;;;8.45;;
53881;SDS011;39794;55.782;37.452;2023-11-19T12:52:11;13.65;;;7.47;;
53881;SDS011;39794;55.782;37.452;2023-11-19T12:54:43;15.63;;;7.88;;
53881;SDS011;39794;55.782;37.452;2023-11-19T12:57:13;20.83;;;8.80;;
53881;SDS011;39794;55.782;37.452;2023-11-19T12:59:42;15.35;;;8.60;;
53881;SDS011;39794;55.782;37.452;2023-11-19T13:02:11;13.85;;;7.13;;
53881;SDS011;39794;55.782;37.452;2023-11-19T13:04:49;17.15;;;8.07;;
53881;SDS011;39794;55.782;37.452;2023-11-19T13:07:20;14.95;;;7.78;;
53881;SDS011;39794;55.782;37.452;2023-11-19T13:10:00;12.82;;;7.55;;
53881;SDS011;39794;55.782;37.452;2023-11-19T13:12:35;20.60;;;7.63;;
53881;SDS011;39794;55.782;37.452;2023-11-19T13:15:05;17.80;;;8.05;;
53881;SDS011;39794;55.782;37.452;2023-11-19T13:17:37;14.75;;;7.90;;
53881;SDS011;39794;55.782;37.452;2023-11-19T13:20:23;17.23;;;7.63;;
53881;SDS011;39794;55.782;37.452;2023-11-19T13:22:58;14.65;;;8.05;;
53881;SDS011;39794;55.782;37.452;2023-11-19T13:25:33;13.57;;;7.63;;
53881;SDS011;39794;55.782;37.452;2023-11-19T13:28:10;12.32;;;6.50;;
53881;SDS011;39794;55.782;37.452;2023-11-19T13:30:44;12.15;;;7.60;;
53881;SDS011;39794;55.782;37.452;2023-11-19T13:33:14;14.20;;;7.80;;
53881;SDS011;39794;55.782;37.452;2023-11-19T13:35:43;21.65;;;8.23;;
53881;SDS011;39794;55.782;37.452;2023-11-19T13:38:12;18.13;;;8.38;;
53881;SDS011;39794;55.782;37.452;2023-11-19T13:40:41;14.15;;;7.38;;
53881;SDS011;39794;55.782;37.452;2023-11-19T13:43:11;18.05;;;8.52;;
53881;SDS011;39794;55.782;37.452;2023-11-19T13:45:40;13.45;;;7.80;;
53881;SDS011;39794;55.782;37.452;2023-11-19T13:48:09;16.63;;;7.70;;
53881;SDS011;39794;55.782;37.452;2023-11-19T13:50:37;14.13;;;8.77;;
53881;SDS011;39794;55.782;37.452;2023-11-19T13:53:06;15.10;;;8.00;;
53881;SDS011;39794;55.782;37.452;2023-11-19T13:55:35;16.23;;;8.20;;
53881;SDS011;39794;55.782;37.452;2023-11-19T13:58:04;17.45;;;8.10;;
53881;SDS011;39794;55.782;37.452;2023-11-19T14:00:34;17.48;;;7.85;;
53881;SDS011;39794;55.782;37.452;2023-11-19T14:03:03;12.85;;;7.45;;
53881;SDS011;39794;55.782;37.452;2023-11-19T14:05:31;18.05;;;7.45;;
53881;SDS011;39794;55.782;37.452;2023-11-19T14:08:04;28.00;;;8.32;;
53881;SDS011;39794;55.782;37.452;2023-11-19T14:10:51;15.55;;;7.68;;
53881;SDS011;39794;55.782;37.452;2023-11-19T14:13:22;14.77;;;8.10;;
53881;SDS011;39794;55.782;37.452;2023-11-19T14:15:52;20.25;;;7.53;;
53881;SDS011;39794;55.782;37.452;2023-11-19T14:18:22;18.77;;;7.88;;
53881;SDS011;39794;55.782;37.452;2023-11-19T14:20:51;18.00;;;8.10;;
53881;SDS011;39794;55.782;37.452;2023-11-19T14:23:20;21.45;;;9.00;;
53881;SDS011;39794;55.782;37.452;2023-11-19T14:25:48;18.25;;;8.95;;
53881;SDS011;39794;55.782;37.452;2023-11-19T14:28:17;15.88;;;9.23;;
53881;SDS011;39794;55.782;37.452;2023-11-19T14:30:46;18.90;;;9.88;;
53881;SDS011;39794;55.782;37.452;2023-11-19T14:33:22;23.38;;;10.73;;
53881;SDS011;39794;55.782;37.452;2023-11-19T14:35:51;20.85;;;10.30;;
53881;SDS011;39794;55.782;37.452;2023-11-19T14:38:20;19.77;;;10.30;;
53881;SDS011;39794;55.782;37.452;2023-11-19T14:40:48;25.58;;;10.45;;
53881;SDS011;39794;55.782;37.452;2023-11-19T14:43:17;20.48;;;10.45;;